This is the latest recevied weather packets stored in our database for station/object 9M2ABD-1. If no packets are shown the sender has not sent any weather packets the latest 10 day(s).
| Time | Temp. | Humidity | Pressure | Rain* | Wind** | Luminosity | Snow |
|---|---|---|---|---|---|---|---|
| 1788265522 | 33.89° C | 62% | 1012 hPa | - | - | - | - |
| 1788264321 | 33.89° C | 62% | 1011.6 hPa | - | - | - | - |
| 1788263121 | 33.89° C | 61% | 1011.4 hPa | - | - | - | - |
| 1788261921 | 33.89° C | 59% | 1011 hPa | - | - | - | - |
| 1788260721 | 33.89° C | 59% | 1010.7 hPa | - | - | - | - |
| 1788259521 | 33.89° C | 56% | 1010.3 hPa | - | - | - | - |
| 1788258320 | 33.89° C | 56% | 1010.1 hPa | - | - | - | - |
| 1788257120 | 33.89° C | 56% | 1009.9 hPa | - | - | - | - |
| 1788254724 | 34.44° C | 53% | 1009.9 hPa | - | - | - | - |
| 1788253526 | 34.44° C | 53% | 1010.1 hPa | - | - | - | - |
| 1788252850 | 34.44° C | 52% | 1010.2 hPa | - | - | - | - |
| 1788252323 | 34.44° C | 52% | 1010.2 hPa | - | - | - | - |
| 1788251123 | 34.44° C | 52% | 1010.2 hPa | - | - | - | - |
| 1788249923 | 34.44° C | 53% | 1010.2 hPa | - | - | - | - |
| 1788248723 | 34.44° C | 53% | 1010.3 hPa | - | - | - | - |
| 1788247523 | 34.44° C | 53% | 1010.3 hPa | - | - | - | - |
| 1788246323 | 34.44° C | 54% | 1010.4 hPa | - | - | - | - |
| 1788245123 | 33.89° C | 54% | 1010.5 hPa | - | - | - | - |
| 1788243922 | 33.89° C | 56% | 1010.9 hPa | - | - | - | - |
| 1788242722 | 33.89° C | 56% | 1011.3 hPa | - | - | - | - |
| 1788241522 | 33.89° C | 57% | 1011.6 hPa | - | - | - | - |
| 1788240322 | 33.89° C | 58% | 1011.8 hPa | - | - | - | - |
| 1788239122 | 33.89° C | 58% | 1011.9 hPa | - | - | - | - |
| 1788237922 | 33.89° C | 59% | 1012.2 hPa | - | - | - | - |
| 1788236721 | 33.33° C | 61% | 1012.4 hPa | - | - | - | - |
* Rain since midnight (hover to see other rain measurements)
** Current wind speed in m/s (hover to see current wind gust speed)